createdAt,value
2022-09-15T00:02:24.349Z,5.35
2022-09-15T00:04:50.765Z,2.92
2022-09-15T00:07:17.343Z,4.50
2022-09-15T00:09:43.632Z,5.85
2022-09-15T00:12:10.007Z,5.78
2022-09-15T00:14:36.335Z,5.28
2022-09-15T00:17:02.723Z,4.30
2022-09-15T00:19:29.257Z,11.57
2022-09-15T00:21:55.560Z,5.25
2022-09-15T00:24:21.874Z,5.60
2022-09-15T00:26:48.186Z,3.83
2022-09-15T00:29:14.474Z,3.38
2022-09-15T00:31:40.806Z,5.65
2022-09-15T00:34:07.319Z,4.72
2022-09-15T00:36:33.932Z,3.30
2022-09-15T00:39:00.246Z,4.97
2022-09-15T00:41:26.641Z,3.90
2022-09-15T00:44:01.789Z,4.60
2022-09-15T00:46:31.715Z,8.35
2022-09-15T00:49:09.260Z,5.15
2022-09-15T00:51:42.896Z,7.55
2022-09-15T00:54:16.013Z,7.13
2022-09-15T00:56:44.228Z,8.68
2022-09-15T00:59:16.861Z,5.35
2022-09-15T01:01:46.019Z,4.95
2022-09-15T01:04:14.631Z,6.90
2022-09-15T01:06:46.730Z,4.53
2022-09-15T01:09:24.894Z,4.22
2022-09-15T01:11:51.563Z,6.53
2022-09-15T01:14:17.865Z,6.53
2022-09-15T01:17:03.772Z,5.00
2022-09-15T01:20:02.905Z,4.43
2022-09-15T01:23:03.150Z,4.10
2022-09-15T01:26:17.709Z,4.65
2022-09-15T01:29:21.884Z,6.07
2022-09-15T01:32:16.479Z,4.93
2022-09-15T01:34:55.815Z,10.02
2022-09-15T01:37:30.130Z,5.30
2022-09-15T01:40:00.581Z,5.35
2022-09-15T01:42:27.871Z,8.70
2022-09-15T01:45:07.497Z,4.53
2022-09-15T01:47:35.247Z,5.82
2022-09-15T01:50:08.911Z,3.20
2022-09-15T01:52:36.742Z,6.35
2022-09-15T01:55:11.545Z,4.63
2022-09-15T01:57:37.893Z,5.53
2022-09-15T02:00:05.841Z,4.10
2022-09-15T02:02:38.067Z,5.15
2022-09-15T02:05:20.659Z,7.18
2022-09-15T02:08:09.672Z,2.40
2022-09-15T02:10:49.591Z,8.20
2022-09-15T02:13:22.491Z,4.03
2022-09-15T02:15:56.738Z,5.03
2022-09-15T02:18:45.838Z,4.28
2022-09-15T02:21:18.808Z,2.92
2022-09-15T02:23:57.016Z,4.07
2022-09-15T02:26:29.018Z,3.60
2022-09-15T02:28:59.883Z,2.78
2022-09-15T02:31:27.729Z,3.92
2022-09-15T02:33:59.065Z,5.85
2022-09-15T02:36:32.999Z,4.65
2022-09-15T02:39:04.852Z,5.18
2022-09-15T02:41:33.781Z,5.88
2022-09-15T02:44:00.087Z,3.40
2022-09-15T02:46:26.503Z,3.70
2022-09-15T02:48:53.493Z,4.85
2022-09-15T02:51:20.200Z,6.63
2022-09-15T02:53:46.545Z,2.92
2022-09-15T02:56:13.511Z,3.67
2022-09-15T02:58:39.803Z,5.60
2022-09-15T03:01:07.707Z,6.00
2022-09-15T03:03:34.828Z,3.65
2022-09-15T03:06:18.597Z,2.63
2022-09-15T03:08:49.589Z,3.42
2022-09-15T03:11:17.723Z,5.18
2022-09-15T03:13:44.067Z,4.30
2022-09-15T03:16:12.136Z,3.53
2022-09-15T03:18:39.427Z,5.93
2022-09-15T03:21:09.342Z,2.80
2022-09-15T03:23:36.392Z,3.67
2022-09-15T03:26:02.885Z,3.85
2022-09-15T03:28:29.667Z,3.42
2022-09-15T03:30:56.043Z,4.35
2022-09-15T03:33:23.324Z,3.50
2022-09-15T03:35:51.136Z,4.90
2022-09-15T03:38:17.771Z,4.28
2022-09-15T03:40:44.452Z,1.65
2022-09-15T03:43:15.455Z,1.55
2022-09-15T03:45:44.931Z,1.83
2022-09-15T03:48:11.303Z,2.40
2022-09-15T03:50:37.624Z,2.08
2022-09-15T03:53:03.957Z,5.45
2022-09-15T03:55:30.286Z,4.03
2022-09-15T03:57:56.593Z,4.55
2022-09-15T04:00:22.891Z,4.55
2022-09-15T04:02:49.249Z,5.07
2022-09-15T04:05:15.799Z,5.25
2022-09-15T04:07:42.193Z,6.05
2022-09-15T04:10:09.480Z,6.63
2022-09-15T04:12:36.300Z,6.53
2022-09-15T04:15:03.970Z,6.60
2022-09-15T04:17:31.081Z,7.40
2022-09-15T04:19:57.741Z,6.93
2022-09-15T04:22:26.378Z,10.77
2022-09-15T04:24:52.911Z,8.52
2022-09-15T04:27:19.284Z,10.77
2022-09-15T04:29:46.039Z,10.57
2022-09-15T04:32:12.377Z,10.60
2022-09-15T04:34:41.418Z,13.73
2022-09-15T04:37:07.937Z,15.50
2022-09-15T04:39:34.314Z,14.23
2022-09-15T04:42:01.017Z,14.00
2022-09-15T04:44:27.303Z,13.15
2022-09-15T04:46:54.280Z,15.68
2022-09-15T04:49:20.666Z,16.75
2022-09-15T04:51:47.098Z,22.98
2022-09-15T04:54:13.559Z,19.50
2022-09-15T04:56:39.877Z,21.52
2022-09-15T04:59:06.265Z,18.85
2022-09-15T05:01:35.145Z,19.23
2022-09-15T05:04:05.817Z,21.05
2022-09-15T05:06:32.792Z,18.17
2022-09-15T05:08:59.384Z,21.55
2022-09-15T05:11:26.983Z,19.75
2022-09-15T05:13:53.887Z,18.40
2022-09-15T05:16:23.648Z,17.92
2022-09-15T05:18:51.523Z,22.73
2022-09-15T05:21:20.162Z,20.10
2022-09-15T05:23:47.300Z,17.85
2022-09-15T05:26:16.500Z,20.00
2022-09-15T05:28:43.165Z,14.88
2022-09-15T05:31:11.911Z,15.55
2022-09-15T05:33:38.652Z,17.38
2022-09-15T05:36:05.989Z,11.13
2022-09-15T05:38:32.526Z,14.85
2022-09-15T05:41:03.927Z,11.32
2022-09-15T05:43:32.548Z,8.88
2022-09-15T05:45:58.923Z,12.93
2022-09-15T05:48:26.655Z,7.15
2022-09-15T05:50:54.702Z,7.18
2022-09-15T05:53:22.787Z,9.07
2022-09-15T05:55:53.947Z,5.13
2022-09-15T05:58:20.220Z,7.82
2022-09-15T06:00:46.552Z,9.23
2022-09-15T06:03:15.377Z,5.68
2022-09-15T06:05:42.268Z,5.75
2022-09-15T06:08:09.473Z,6.95
2022-09-15T06:10:36.323Z,6.68
2022-09-15T06:13:02.779Z,6.05
2022-09-15T06:15:29.077Z,8.60
2022-09-15T06:17:55.365Z,6.80
2022-09-15T06:20:22.281Z,9.40
2022-09-15T06:22:48.872Z,5.50
2022-09-15T06:25:15.384Z,5.82
2022-09-15T06:27:41.986Z,6.60
2022-09-15T06:30:09.898Z,6.85
2022-09-15T06:32:36.739Z,5.95
2022-09-15T06:35:07.074Z,9.05
2022-09-15T06:37:34.521Z,7.38
2022-09-15T06:40:01.795Z,6.72
2022-09-15T06:42:28.285Z,5.93
2022-09-15T06:44:54.580Z,7.70
2022-09-15T06:47:21.104Z,6.05
2022-09-15T06:49:47.390Z,8.55
2022-09-15T06:52:13.740Z,9.25
2022-09-15T06:54:40.120Z,5.45
2022-09-15T06:57:06.397Z,5.55
2022-09-15T06:59:32.673Z,6.40
2022-09-15T07:02:04.091Z,3.92
2022-09-15T07:04:37.137Z,8.25
2022-09-15T07:07:03.521Z,6.57
2022-09-15T07:09:29.857Z,4.50
2022-09-15T07:11:56.195Z,7.15
2022-09-15T07:14:22.503Z,4.30
2022-09-15T07:16:48.921Z,5.65
2022-09-15T07:19:15.413Z,5.20
2022-09-15T07:21:41.723Z,6.65
2022-09-15T07:24:10.276Z,9.48
2022-09-15T07:26:37.763Z,3.90
2022-09-15T07:29:06.646Z,5.55
2022-09-15T07:31:35.634Z,4.18
2022-09-15T07:34:02.339Z,6.22
2022-09-15T07:36:29.860Z,4.05
2022-09-15T07:38:56.750Z,9.55
2022-09-15T07:41:25.539Z,3.55
2022-09-15T07:43:54.261Z,3.45
2022-09-15T07:46:22.215Z,3.95
2022-09-15T07:48:53.323Z,5.55
2022-09-15T07:51:20.056Z,4.32
2022-09-15T07:53:47.967Z,3.10
2022-09-15T07:56:16.033Z,6.22
2022-09-15T07:58:42.313Z,5.47
2022-09-15T08:01:14.674Z,4.68
2022-09-15T08:03:42.670Z,4.97
2022-09-15T08:06:09.903Z,4.63
2022-09-15T08:08:38.684Z,6.30
2022-09-15T08:11:07.268Z,3.50
2022-09-15T08:13:33.692Z,5.18
2022-09-15T08:16:12.347Z,5.25
2022-09-15T08:18:42.232Z,2.60
2022-09-15T08:21:13.468Z,3.15
2022-09-15T08:23:40.161Z,2.50
2022-09-15T08:26:13.068Z,3.97
2022-09-15T08:28:40.528Z,3.58
2022-09-15T08:31:13.755Z,3.45
2022-09-15T08:33:44.786Z,4.50
2022-09-15T08:36:12.692Z,5.55
2022-09-15T08:38:46.873Z,2.55
2022-09-15T08:41:29.746Z,2.90
2022-09-15T08:44:00.868Z,4.68
2022-09-15T08:46:54.006Z,3.25
2022-09-15T08:49:50.598Z,2.03
2022-09-15T08:52:38.051Z,4.63
2022-09-15T08:55:12.844Z,4.22
2022-09-15T08:57:39.291Z,4.25
2022-09-15T09:00:25.219Z,4.63
2022-09-15T09:03:14.411Z,2.95
2022-09-15T09:05:53.480Z,4.13
2022-09-15T09:08:34.705Z,2.97
2022-09-15T09:11:16.080Z,6.53
2022-09-15T09:13:52.902Z,6.13
2022-09-15T09:16:32.143Z,4.53
2022-09-15T09:19:33.595Z,7.70
2022-09-15T09:22:05.390Z,5.75
2022-09-15T09:24:42.425Z,9.15
2022-09-15T09:27:18.940Z,7.22
2022-09-15T09:29:51.230Z,6.10
2022-09-15T09:32:38.577Z,5.72
2022-09-15T09:35:34.442Z,3.78
2022-09-15T09:38:02.334Z,6.20
2022-09-15T09:40:31.426Z,5.93
2022-09-15T09:42:57.906Z,3.65
2022-09-15T09:45:24.216Z,3.78
2022-09-15T09:47:50.572Z,6.00
2022-09-15T09:50:35.959Z,5.70
2022-09-15T09:53:17.788Z,4.13
2022-09-15T09:55:45.814Z,7.28
2022-09-15T09:58:17.872Z,6.57
2022-09-15T10:00:44.583Z,4.88
2022-09-15T10:03:28.002Z,5.38
2022-09-15T10:06:18.715Z,5.93
2022-09-15T10:08:53.256Z,6.20
2022-09-15T10:11:19.635Z,5.45
2022-09-15T10:13:54.997Z,7.85
2022-09-15T10:18:54.227Z,6.07
2022-09-15T10:21:24.509Z,5.07
2022-09-15T10:23:50.844Z,6.32
2022-09-15T10:26:31.972Z,7.95
2022-09-15T10:29:16.924Z,7.15
2022-09-15T10:31:44.684Z,9.35
2022-09-15T10:34:31.597Z,6.82
2022-09-15T10:37:16.900Z,8.40
2022-09-15T10:39:54.995Z,7.68
2022-09-15T10:42:44.361Z,8.40
2022-09-15T10:45:18.628Z,8.68
2022-09-15T10:48:02.850Z,14.30
2022-09-15T10:50:36.440Z,7.80
2022-09-15T10:53:27.670Z,9.15
2022-09-15T10:55:56.867Z,6.70
2022-09-15T10:58:32.278Z,6.80
2022-09-15T11:01:27.916Z,6.82
2022-09-15T11:04:22.747Z,6.75
2022-09-15T11:07:03.049Z,7.40
2022-09-15T11:09:32.097Z,7.85
2022-09-15T11:12:17.183Z,6.13
2022-09-15T11:14:55.682Z,7.32
2022-09-15T11:17:37.401Z,9.98
2022-09-15T11:20:15.110Z,9.82
2022-09-15T11:22:49.664Z,6.85
2022-09-15T11:25:23.184Z,6.18
2022-09-15T11:28:00.516Z,6.88
2022-09-15T11:30:35.797Z,6.93
2022-09-15T11:33:27.752Z,8.82
2022-09-15T11:36:07.388Z,8.15
2022-09-15T11:38:53.431Z,6.93
2022-09-15T11:41:30.981Z,5.95
2022-09-15T11:44:16.125Z,6.00
2022-09-15T11:46:57.420Z,7.30
2022-09-15T11:49:31.021Z,8.55
2022-09-15T11:52:14.502Z,6.97
2022-09-15T11:54:56.694Z,7.65
2022-09-15T11:57:34.152Z,7.90
2022-09-15T12:00:12.301Z,9.38
2022-09-15T12:03:16.625Z,8.57
2022-09-15T12:05:50.788Z,7.82
2022-09-15T12:08:20.843Z,8.00
2022-09-15T12:10:52.295Z,10.13
2022-09-15T12:13:21.777Z,6.85
2022-09-15T12:15:49.586Z,8.35
2022-09-15T12:18:38.138Z,6.60
2022-09-15T12:21:23.768Z,7.40
2022-09-15T12:23:56.064Z,5.50
2022-09-15T12:26:25.090Z,5.18
2022-09-15T12:28:51.942Z,5.60
2022-09-15T12:31:39.191Z,6.60
2022-09-15T12:34:25.451Z,6.57
2022-09-15T12:37:07.135Z,5.50
2022-09-15T12:39:41.935Z,4.68
2022-09-15T12:42:24.650Z,4.40
2022-09-15T12:44:53.144Z,5.55
2022-09-15T12:47:21.633Z,5.85
2022-09-15T12:49:51.168Z,6.10
2022-09-15T12:52:20.375Z,4.47
2022-09-15T12:55:00.668Z,8.27
2022-09-15T12:57:37.827Z,5.10
2022-09-15T13:00:42.331Z,4.63
2022-09-15T13:03:50.728Z,2.92
2022-09-15T13:06:30.320Z,3.40
2022-09-15T13:09:02.286Z,4.30
2022-09-15T13:11:36.709Z,4.43
2022-09-15T13:14:13.725Z,4.40
2022-09-15T13:16:40.030Z,2.90
2022-09-15T13:19:41.724Z,5.05
2022-09-15T13:22:10.902Z,5.68
2022-09-15T13:24:48.426Z,6.47
2022-09-15T13:27:19.570Z,2.65
2022-09-15T13:29:50.689Z,5.45
2022-09-15T13:32:40.966Z,4.55
2022-09-15T13:35:22.397Z,7.68
2022-09-15T13:38:13.560Z,4.70
2022-09-15T13:40:52.434Z,3.88
2022-09-15T13:43:43.539Z,5.15
2022-09-15T13:46:38.883Z,3.60
2022-09-15T13:49:29.649Z,4.85
2022-09-15T13:52:07.316Z,4.55
2022-09-15T13:54:33.631Z,4.38
2022-09-15T13:57:01.857Z,3.00
2022-09-15T13:59:30.985Z,3.33
2022-09-15T14:01:58.933Z,4.00
2022-09-15T14:04:31.123Z,3.97
2022-09-15T14:07:01.908Z,5.47
2022-09-15T14:09:57.603Z,4.30
2022-09-15T14:12:24.001Z,5.65
2022-09-15T14:14:53.933Z,4.82
2022-09-15T14:17:28.710Z,4.63
2022-09-15T14:19:57.328Z,5.22
2022-09-15T14:22:29.520Z,4.72
2022-09-15T14:24:57.505Z,6.13
2022-09-15T14:27:27.388Z,3.50
2022-09-15T14:30:00.421Z,3.47
2022-09-15T14:32:28.692Z,5.70
2022-09-15T14:34:59.527Z,6.18
2022-09-15T14:37:32.089Z,3.28
2022-09-15T14:40:00.954Z,3.28
2022-09-15T14:42:35.321Z,4.43
2022-09-15T14:48:02.200Z,5.82
2022-09-15T14:50:32.824Z,4.50
2022-09-15T14:53:05.522Z,2.45
2022-09-15T14:55:43.300Z,3.45
2022-09-15T14:58:30.713Z,3.08
2022-09-15T15:01:23.070Z,3.70
2022-09-15T15:04:09.992Z,3.03
2022-09-15T15:06:54.079Z,4.18
2022-09-15T15:09:29.820Z,3.20
2022-09-15T15:12:00.459Z,5.20
2022-09-15T15:14:27.478Z,3.63
2022-09-15T15:17:00.051Z,4.53
2022-09-15T15:20:12.684Z,3.55
2022-09-15T15:22:41.445Z,3.35
2022-09-15T15:25:28.919Z,2.88
2022-09-15T15:27:59.462Z,4.20
2022-09-15T15:30:36.614Z,4.07
2022-09-15T15:33:27.294Z,3.70
2022-09-15T15:36:08.119Z,3.38
2022-09-15T15:38:50.337Z,3.45
2022-09-15T15:41:22.419Z,3.03
2022-09-15T15:43:59.680Z,3.42
2022-09-15T15:46:53.340Z,2.60
2022-09-15T15:49:21.215Z,2.55
2022-09-15T15:51:47.771Z,2.72
2022-09-15T15:54:14.436Z,2.45
2022-09-15T15:56:40.852Z,2.83
2022-09-15T15:59:09.180Z,2.40
2022-09-15T16:01:35.519Z,2.53
2022-09-15T16:04:01.981Z,3.63
2022-09-15T16:06:28.405Z,3.92
2022-09-15T16:08:58.033Z,2.38
2022-09-15T16:11:24.489Z,2.53
2022-09-15T16:13:50.823Z,2.95
2022-09-15T16:16:22.644Z,2.45
2022-09-15T16:18:49.439Z,2.42
2022-09-15T16:21:22.172Z,3.15
2022-09-15T16:23:48.614Z,3.05
2022-09-15T16:26:20.583Z,2.70
2022-09-15T16:28:46.908Z,5.00
2022-09-15T16:31:14.662Z,3.30
2022-09-15T16:33:42.696Z,2.38
2022-09-15T16:36:13.790Z,3.90
2022-09-15T16:38:40.959Z,3.75
2022-09-15T16:41:16.100Z,3.97
2022-09-15T16:43:43.190Z,4.63
2022-09-15T16:46:14.009Z,4.03
2022-09-15T16:48:42.592Z,3.00
2022-09-15T16:51:31.633Z,5.03
2022-09-15T16:53:58.667Z,3.25
2022-09-15T16:56:25.207Z,3.83
2022-09-15T16:58:59.575Z,3.78
2022-09-15T17:01:26.788Z,2.47
2022-09-15T17:03:53.083Z,4.30
2022-09-15T17:06:19.428Z,6.65
2022-09-15T17:08:46.064Z,3.67
2022-09-15T17:11:16.625Z,2.60
2022-09-15T17:13:44.000Z,5.35
2022-09-15T17:16:12.324Z,3.30
2022-09-15T17:18:38.669Z,4.28
2022-09-15T17:21:05.094Z,2.97
2022-09-15T17:23:35.346Z,3.78
2022-09-15T17:26:04.945Z,2.22
2022-09-15T17:28:33.268Z,3.83
2022-09-15T17:31:05.232Z,4.47
2022-09-15T17:33:32.703Z,3.97
2022-09-15T17:36:00.323Z,3.30
2022-09-15T17:38:27.395Z,5.00
2022-09-15T17:40:55.226Z,4.05
2022-09-15T17:43:24.303Z,2.47
2022-09-15T17:45:51.653Z,3.22
2022-09-15T17:48:18.060Z,5.70
2022-09-15T17:50:45.488Z,5.07
2022-09-15T17:53:14.868Z,2.30
2022-09-15T17:55:41.296Z,3.97
2022-09-15T17:58:08.602Z,3.38
2022-09-15T18:00:37.731Z,2.35
2022-09-15T18:03:28.720Z,7.88
2022-09-15T18:05:58.190Z,6.75
2022-09-15T18:08:25.204Z,2.92
2022-09-15T18:10:51.639Z,3.17
2022-09-15T18:13:22.061Z,3.78
2022-09-15T18:15:48.917Z,3.40
2022-09-15T18:18:19.698Z,4.25
2022-09-15T18:20:46.501Z,3.80
2022-09-15T18:23:15.068Z,2.72
2022-09-15T18:25:42.316Z,5.00
2022-09-15T18:28:09.180Z,2.67
2022-09-15T18:30:40.467Z,4.57
2022-09-15T18:33:22.134Z,3.30
2022-09-15T18:35:51.431Z,3.80
2022-09-15T18:38:17.859Z,3.17
2022-09-15T18:40:55.823Z,4.88
2022-09-15T18:43:24.963Z,4.50
2022-09-15T18:45:53.065Z,4.97
2022-09-15T18:48:19.483Z,4.22
2022-09-15T18:50:45.845Z,5.05
2022-09-15T18:53:12.952Z,4.82
2022-09-15T18:55:42.506Z,3.78
2022-09-15T18:58:10.104Z,6.38
2022-09-15T19:00:36.546Z,3.10
2022-09-15T19:03:05.475Z,6.28
2022-09-15T19:05:32.544Z,4.28
2022-09-15T19:07:58.907Z,3.33
2022-09-15T19:10:26.738Z,5.43
2022-09-15T19:12:53.681Z,2.75
2022-09-15T19:15:23.700Z,3.65
2022-09-15T19:17:50.221Z,2.80
2022-09-15T19:20:17.383Z,2.50
2022-09-15T19:22:43.752Z,2.67
2022-09-15T19:25:11.292Z,4.35
2022-09-15T19:27:39.391Z,3.47
2022-09-15T19:30:09.734Z,2.30
2022-09-15T19:32:36.843Z,3.95
2022-09-15T19:35:03.327Z,1.90
2022-09-15T19:37:29.657Z,3.70
2022-09-15T19:39:56.188Z,3.25
2022-09-15T19:42:22.639Z,3.38
2022-09-15T19:44:49.456Z,4.00
2022-09-15T19:47:16.195Z,3.65
2022-09-15T19:49:42.817Z,2.60
2022-09-15T19:52:09.195Z,3.17
2022-09-15T19:54:35.653Z,3.13
2022-09-15T19:57:02.120Z,4.63
2022-09-15T19:59:31.619Z,3.85
2022-09-15T20:01:59.001Z,4.88
2022-09-15T20:04:25.816Z,5.70
2022-09-15T20:06:52.237Z,3.55
2022-09-15T20:09:18.746Z,2.50
2022-09-15T20:11:45.111Z,3.22
2022-09-15T20:14:11.862Z,2.38
2022-09-15T20:16:38.286Z,2.38
2022-09-15T20:19:04.972Z,3.28
2022-09-15T20:21:50.767Z,2.90
2022-09-15T20:24:19.059Z,3.58
2022-09-15T20:26:45.411Z,4.40
2022-09-15T20:29:12.490Z,2.88
2022-09-15T20:31:39.240Z,2.53
2022-09-15T20:34:05.594Z,2.80
2022-09-15T20:36:35.400Z,3.35
2022-09-15T20:39:03.282Z,3.35
2022-09-15T20:41:31.712Z,4.18
2022-09-15T20:43:58.252Z,2.88
2022-09-15T20:46:25.142Z,4.45
2022-09-15T20:48:52.392Z,2.50
2022-09-15T20:51:22.687Z,4.07
2022-09-15T20:53:51.388Z,2.50
2022-09-15T20:56:21.028Z,3.28
2022-09-15T20:58:47.723Z,1.90
2022-09-15T21:01:19.279Z,5.15
2022-09-15T21:03:46.056Z,3.00
2022-09-15T21:06:15.768Z,5.10
2022-09-15T21:08:42.445Z,2.13
2022-09-15T21:11:14.533Z,5.03
2022-09-15T21:13:42.154Z,3.05
2022-09-15T21:16:11.065Z,3.78
2022-09-15T21:18:39.735Z,3.35
2022-09-15T21:21:36.635Z,5.95
2022-09-15T21:24:08.323Z,3.28
2022-09-15T21:26:58.532Z,5.18
2022-09-15T21:29:26.282Z,5.13
2022-09-15T21:31:52.879Z,2.72
2022-09-15T21:34:19.596Z,1.98
2022-09-15T21:36:46.031Z,2.42
2022-09-15T21:39:12.337Z,3.75
2022-09-15T21:41:38.679Z,2.50
2022-09-15T21:44:05.116Z,3.58
2022-09-15T21:46:31.834Z,2.10
2022-09-15T21:48:59.898Z,3.70
2022-09-15T21:51:28.348Z,4.25
2022-09-15T21:53:56.348Z,2.50
2022-09-15T21:56:24.014Z,5.10
2022-09-15T21:58:50.368Z,3.35
2022-09-15T22:01:19.498Z,1.88
2022-09-15T22:03:50.884Z,3.38
2022-09-15T22:06:19.248Z,3.33
2022-09-15T22:08:46.635Z,2.55
2022-09-15T22:11:13.176Z,3.35
2022-09-15T22:13:41.812Z,2.60
2022-09-15T22:16:12.490Z,2.13
2022-09-15T22:18:40.661Z,4.03
2022-09-15T22:21:13.806Z,4.00
2022-09-15T22:23:41.092Z,3.10
2022-09-15T22:26:13.261Z,3.92
2022-09-15T22:28:39.723Z,2.88
2022-09-15T22:31:09.073Z,9.00
2022-09-15T22:33:35.772Z,4.45
2022-09-15T22:36:02.826Z,2.55
2022-09-15T22:38:30.348Z,2.97
2022-09-15T22:41:02.352Z,6.28
2022-09-15T22:43:28.704Z,2.58
2022-09-15T22:45:55.075Z,7.18
2022-09-15T22:48:21.404Z,2.75
2022-09-15T22:50:47.704Z,2.65
2022-09-15T22:53:14.479Z,2.50
2022-09-15T22:55:41.004Z,3.53
2022-09-15T22:58:07.770Z,4.68
2022-09-15T23:00:36.746Z,3.67
2022-09-15T23:03:03.208Z,6.28
2022-09-15T23:05:29.513Z,2.95
2022-09-15T23:07:55.868Z,6.43
2022-09-15T23:10:22.674Z,3.13
2022-09-15T23:12:49.089Z,5.97
2022-09-15T23:15:15.476Z,4.32
2022-09-15T23:17:41.798Z,5.35
2022-09-15T23:20:09.327Z,4.30
2022-09-15T23:22:35.641Z,5.65
2022-09-15T23:25:01.994Z,3.83
2022-09-15T23:27:28.338Z,2.70
2022-09-15T23:29:54.662Z,2.78
2022-09-15T23:32:20.986Z,4.85
2022-09-15T23:34:47.299Z,2.88
2022-09-15T23:37:13.606Z,4.30
2022-09-15T23:39:40.267Z,3.90
2022-09-15T23:42:07.111Z,6.60
2022-09-15T23:44:33.426Z,2.92
2022-09-15T23:46:59.828Z,4.50
2022-09-15T23:49:26.230Z,3.70
2022-09-15T23:51:52.526Z,6.88
2022-09-15T23:54:18.918Z,4.10
2022-09-15T23:56:45.353Z,3.03
2022-09-15T23:59:11.670Z,4.43
